EmailTwitter


Surface observations / United Kingdom / EGTE (03839)

Regions: Quebec | Canada | USA | Europe | France | UK | Elsewhere
Station
Display
Info & Location for EGTE (03839) | Help decoding METAR

Weather Conditions observed on 2019/12/11 at 00:20 UTC at EXETER AIRPORT, UK (EGTE)

Temperature: 6.0 Celsius.

Dewpoint: 4.0 Celsius.

Relative Humidity: 87%

Winds: Southwest at 9 km/h or 5 knots.

Mean Sea level Pressure: 101.00 kilopascals.

Coded METAR:

EGTE 110020Z 23005KT 200V260 CAVOK 06/04 Q1010=